createdAt,value
2022-10-18T00:04:06.506Z,56
2022-10-18T00:09:46.791Z,56
2022-10-18T00:15:29.446Z,44
2022-10-18T00:21:12.794Z,50
2022-10-18T00:26:52.995Z,52
2022-10-18T00:32:34.870Z,46
2022-10-18T00:38:17.815Z,44
2022-10-18T00:43:58.377Z,44
2022-10-18T00:49:38.456Z,54
2022-10-18T00:55:18.507Z,56
2022-10-18T01:00:58.836Z,74
2022-10-18T01:06:39.303Z,56
2022-10-18T01:12:19.807Z,50
2022-10-18T01:18:00.315Z,60
2022-10-18T01:23:40.969Z,52
2022-10-18T01:29:21.377Z,52
2022-10-18T01:35:01.554Z,46
2022-10-18T01:40:41.985Z,40
2022-10-18T01:46:22.125Z,56
2022-10-18T01:52:03.641Z,58
2022-10-18T01:57:44.212Z,46
2022-10-18T02:03:25.180Z,60
2022-10-18T02:09:06.635Z,58
2022-10-18T02:14:46.683Z,44
2022-10-18T02:20:26.737Z,44
2022-10-18T02:26:08.282Z,44
2022-10-18T02:31:48.096Z,54
2022-10-18T02:37:29.014Z,56
2022-10-18T02:43:09.231Z,48
2022-10-18T02:48:49.358Z,40
2022-10-18T02:54:35.973Z,46
2022-10-18T03:00:15.748Z,46
2022-10-18T03:05:55.910Z,56
2022-10-18T03:11:35.912Z,36
2022-10-18T03:17:15.937Z,56
2022-10-18T03:22:55.607Z,46
2022-10-18T03:28:41.085Z,56
2022-10-18T03:34:21.212Z,56
2022-10-18T03:40:02.180Z,48
2022-10-18T03:45:42.393Z,56
2022-10-18T03:51:22.851Z,44
2022-10-18T03:57:03.199Z,56
2022-10-18T04:02:44.197Z,40
2022-10-18T04:08:24.817Z,44
2022-10-18T04:14:05.353Z,46
2022-10-18T04:19:46.144Z,56
2022-10-18T04:25:26.948Z,44
2022-10-18T04:31:07.605Z,48
2022-10-18T04:36:47.524Z,48
2022-10-18T04:42:28.202Z,54
2022-10-18T04:48:11.808Z,42
2022-10-18T04:53:52.072Z,56
2022-10-18T04:59:32.442Z,62
2022-10-18T05:05:14.746Z,46
2022-10-18T05:10:55.148Z,56
2022-10-18T05:16:36.015Z,54
2022-10-18T05:22:16.922Z,50
2022-10-18T05:27:57.107Z,52
2022-10-18T05:33:37.515Z,50
2022-10-18T05:39:18.313Z,48
2022-10-18T05:44:58.402Z,56
2022-10-18T05:50:40.924Z,48
2022-10-18T05:56:20.981Z,56
2022-10-18T06:02:01.108Z,46
2022-10-18T06:07:41.671Z,56
2022-10-18T06:13:21.435Z,56
2022-10-18T06:19:01.390Z,42
2022-10-18T06:24:41.312Z,42
2022-10-18T06:30:21.437Z,52
2022-10-18T06:36:01.842Z,56
2022-10-18T06:41:41.997Z,52
2022-10-18T06:47:22.768Z,58
2022-10-18T06:53:03.638Z,56
2022-10-18T06:58:46.262Z,46
2022-10-18T07:04:26.675Z,52
2022-10-18T07:10:07.283Z,56
2022-10-18T07:15:53.527Z,48
2022-10-18T07:21:33.498Z,46
2022-10-18T07:27:13.841Z,52
2022-10-18T07:32:54.065Z,54
2022-10-18T07:38:34.101Z,44
2022-10-18T07:44:14.076Z,48
2022-10-18T07:49:54.257Z,44
2022-10-18T07:55:36.507Z,46
2022-10-18T08:01:16.880Z,48
2022-10-18T08:06:57.432Z,48
2022-10-18T08:12:37.123Z,48
2022-10-18T08:18:23.578Z,52
2022-10-18T08:24:06.209Z,46
2022-10-18T08:29:46.830Z,48
2022-10-18T08:35:27.483Z,44
2022-10-18T08:41:08.108Z,46
2022-10-18T08:46:48.143Z,58
2022-10-18T08:52:28.936Z,44
2022-10-18T08:58:10.015Z,46
2022-10-18T09:03:50.989Z,52
2022-10-18T09:09:32.279Z,48
2022-10-18T09:15:12.422Z,50
2022-10-18T09:20:53.326Z,58
2022-10-18T09:26:33.537Z,58
2022-10-18T09:32:13.394Z,46
2022-10-18T09:37:53.626Z,52
2022-10-18T09:43:36.882Z,46
2022-10-18T09:49:17.467Z,50
2022-10-18T09:54:57.598Z,56
2022-10-18T10:00:38.323Z,48
2022-10-18T10:06:18.885Z,60
2022-10-18T10:11:59.262Z,58
2022-10-18T10:17:42.502Z,46
2022-10-18T10:23:23.130Z,52
2022-10-18T10:29:33.466Z,58
2022-10-18T10:35:54.552Z,46
2022-10-18T10:41:35.611Z,56
2022-10-18T10:47:16.547Z,56
2022-10-18T10:52:56.836Z,52
2022-10-18T10:58:36.930Z,46
2022-10-18T11:04:17.469Z,46
2022-10-18T11:10:01.184Z,60
2022-10-18T11:15:44.657Z,56
2022-10-18T11:21:24.836Z,2
2022-10-18T11:27:05.799Z,18
2022-10-18T11:32:48.522Z,18
2022-10-18T11:38:40.329Z,14
2022-10-18T11:44:28.976Z,14
2022-10-18T11:50:10.155Z,20
2022-10-18T11:55:58.307Z,30
2022-10-18T12:01:41.543Z,12
2022-10-18T12:07:32.798Z,22
2022-10-18T12:13:12.674Z,22
2022-10-18T12:24:35.836Z,18
2022-10-18T12:30:19.363Z,0
2022-10-18T12:36:06.650Z,6
2022-10-18T12:41:46.774Z,2
2022-10-18T12:47:26.961Z,8
2022-10-18T12:53:07.550Z,0
2022-10-18T12:58:53.578Z,2
2022-10-18T13:09:52.091Z,0
2022-10-18T13:15:34.806Z,4
2022-10-18T13:21:18.474Z,2
2022-10-18T13:27:37.635Z,4
2022-10-18T13:33:20.963Z,0
2022-10-18T13:39:04.941Z,14
2022-10-18T13:44:45.641Z,8
2022-10-18T13:50:25.955Z,56
2022-10-18T13:56:06.120Z,18
2022-10-18T14:01:53.881Z,66
2022-10-18T14:07:33.925Z,14
2022-10-18T14:13:16.994Z,56
2022-10-18T14:18:57.349Z,52
2022-10-18T14:24:37.484Z,28
2022-10-18T14:30:17.177Z,48
2022-10-18T14:35:56.987Z,62
2022-10-18T14:41:37.338Z,56
2022-10-18T14:47:17.854Z,58
2022-10-18T14:52:58.057Z,40
2022-10-18T14:58:38.571Z,48
2022-10-18T15:04:19.289Z,48
2022-10-18T15:10:00.094Z,46
2022-10-18T15:15:42.843Z,56
2022-10-18T15:21:22.689Z,58
2022-10-18T15:27:03.499Z,48
2022-10-18T15:32:43.666Z,48
2022-10-18T15:38:24.090Z,48
2022-10-18T15:44:04.454Z,48
2022-10-18T15:49:44.721Z,38
2022-10-18T15:55:27.945Z,54
2022-10-18T16:01:08.279Z,46
2022-10-18T16:06:51.727Z,44
2022-10-18T16:12:31.719Z,46
2022-10-18T16:18:11.946Z,54
2022-10-18T16:23:52.164Z,56
2022-10-18T16:29:36.014Z,44
2022-10-18T16:35:15.943Z,46
2022-10-18T16:40:58.251Z,56
2022-10-18T16:46:38.155Z,46
2022-10-18T16:52:18.173Z,44
2022-10-18T16:57:58.345Z,38
2022-10-18T17:03:38.330Z,58
2022-10-18T17:09:18.828Z,48
2022-10-18T17:15:07.804Z,48
2022-10-18T17:20:48.130Z,60
2022-10-18T17:26:30.970Z,58
2022-10-18T17:32:11.490Z,42
2022-10-18T17:37:52.079Z,50
2022-10-18T17:43:32.554Z,54
2022-10-18T17:49:12.914Z,52
2022-10-18T17:54:52.900Z,54
2022-10-18T18:00:33.059Z,52
2022-10-18T18:06:14.504Z,54
2022-10-18T18:11:54.261Z,54
2022-10-18T18:17:58.621Z,38
2022-10-18T18:23:44.010Z,50
2022-10-18T18:29:23.755Z,56
2022-10-18T18:35:07.290Z,56
2022-10-18T18:40:49.814Z,48
2022-10-18T18:46:30.813Z,52
2022-10-18T18:52:12.073Z,50
2022-10-18T18:57:51.975Z,44
2022-10-18T19:03:32.021Z,56
2022-10-18T19:09:11.765Z,56
2022-10-18T19:14:52.015Z,54
2022-10-18T19:20:32.125Z,56
2022-10-18T19:26:12.010Z,58
2022-10-18T19:31:51.859Z,58
2022-10-18T19:37:33.486Z,46
2022-10-18T19:43:14.130Z,52
2022-10-18T19:48:53.943Z,48
2022-10-18T19:54:33.720Z,58
2022-10-18T20:00:20.241Z,38
2022-10-18T20:06:00.096Z,42
2022-10-18T20:11:42.588Z,56
2022-10-18T20:17:22.573Z,54
2022-10-18T20:23:02.737Z,48
2022-10-18T20:28:42.786Z,58
2022-10-18T20:34:22.889Z,56
2022-10-18T20:40:02.880Z,44
2022-10-18T20:45:42.765Z,40
2022-10-18T20:51:22.793Z,48
2022-10-18T20:57:03.844Z,44
2022-10-18T21:02:46.417Z,54
2022-10-18T21:08:26.369Z,34
2022-10-18T21:14:06.795Z,52
2022-10-18T21:19:47.233Z,50
2022-10-18T21:25:30.671Z,56
2022-10-18T21:31:10.855Z,40
2022-10-18T21:36:50.652Z,40
2022-10-18T21:42:33.312Z,56
2022-10-18T21:48:14.889Z,50
2022-10-18T21:53:55.273Z,50
2022-10-18T21:59:35.322Z,54
2022-10-18T22:05:15.264Z,46
2022-10-18T22:10:55.021Z,60
2022-10-18T22:16:34.797Z,44
2022-10-18T22:22:14.570Z,52
2022-10-18T22:27:54.354Z,56
2022-10-18T22:39:16.802Z,54
2022-10-18T22:44:56.692Z,44
2022-10-18T22:50:36.577Z,56
2022-10-18T22:56:16.355Z,52
2022-10-18T23:01:56.120Z,50
2022-10-18T23:07:35.956Z,56
2022-10-18T23:13:15.802Z,56
2022-10-18T23:18:55.443Z,52
2022-10-18T23:24:35.355Z,56
2022-10-18T23:30:15.072Z,56
2022-10-18T23:35:55.392Z,38
2022-10-18T23:41:35.753Z,40
2022-10-18T23:47:18.390Z,54
2022-10-18T23:52:58.398Z,44
2022-10-18T23:58:38.407Z,38
